Time;durP1;ratioP1;P1;durP2;ratioP2;P2;SDS_P1;SDS_P2;PMS_P1;PMS_P2;Temp;Humidity;BMP_temperature;BMP_pressure;BME280_temperature;BME280_humidity;BME280_pressure;Samples;Min_cycle;Max_cycle;Signal;HPM_P1;HPM_P2
2022/09/13 00:00:36;;;;;;;5.35;1.40;;;15.60;90.70;;;;;;5015289;28;20061;-68
2022/09/13 00:03:02;;;;;;;2.00;1.05;;;15.40;91.40;;;;;;5010529;28;20030;-67
2022/09/13 00:05:29;;;;;;;3.85;1.30;;;15.40;90.50;;;;;;5007165;28;20022;-67
2022/09/13 00:07:56;;;;;;;2.28;1.30;;;15.60;89.30;;;;;;4998333;28;20419;-68
2022/09/13 00:10:23;;;;;;;2.42;1.15;;;15.80;88.70;;;;;;4995317;28;20120;-67
2022/09/13 00:12:49;;;;;;;3.38;1.50;;;15.70;89.20;;;;;;5009063;28;20018;-67
2022/09/13 00:15:15;;;;;;;4.38;1.38;;;15.80;88.10;;;;;;5012039;28;20022;-68
2022/09/13 00:17:41;;;;;;;3.90;1.20;;;16.10;87.10;;;;;;5014708;28;20423;-67
2022/09/13 00:20:07;;;;;;;3.50;1.65;;;16.20;86.80;;;;;;5006467;28;20037;-68
2022/09/13 00:22:33;;;;;;;3.80;1.10;;;16.30;86.50;;;;;;5003565;28;20114;-68
2022/09/13 00:24:59;;;;;;;2.83;1.10;;;16.30;86.40;;;;;;5011260;28;20022;-68
2022/09/13 00:27:25;;;;;;;3.28;1.02;;;16.30;86.10;;;;;;5009786;28;20038;-67
2022/09/13 00:29:50;;;;;;;5.35;1.40;;;16.40;86.30;;;;;;5018061;28;20040;-67
2022/09/13 00:32:16;;;;;;;4.35;1.48;;;16.40;86.00;;;;;;4997450;28;20026;-67
2022/09/13 00:34:42;;;;;;;2.10;1.10;;;16.50;85.60;;;;;;5018839;28;20335;-67
2022/09/13 00:37:08;;;;;;;3.33;1.23;;;16.50;86.10;;;;;;5015247;28;20030;-67
2022/09/13 00:39:34;;;;;;;3.40;1.20;;;16.40;86.70;;;;;;5007770;28;20030;-67
2022/09/13 00:42:00;;;;;;;3.28;1.45;;;16.30;86.60;;;;;;5013889;28;20033;-68
2022/09/13 00:44:56;;;;;;;2.33;1.30;;;16.20;87.50;;;;;;5012715;28;20026;-66
2022/09/13 00:47:44;;;;;;;4.40;1.35;;;16.10;87.90;;;;;;5014206;28;20053;-67
2022/09/13 00:50:12;;;;;;;6.32;1.50;;;16.00;88.00;;;;;;5006728;28;20034;-67
2022/09/13 00:52:40;;;;;;;5.10;1.40;;;16.10;88.40;;;;;;5012379;28;20535;-70
2022/09/13 00:55:12;;;;;;;4.25;1.42;;;16.20;88.00;;;;;;5015386;28;20125;-69
2022/09/13 00:57:43;;;;;;;3.97;1.48;;;16.30;87.40;;;;;;5019916;28;20095;-68
2022/09/13 01:00:12;;;;;;;4.68;1.23;;;16.30;87.60;;;;;;5016963;28;20072;-68
2022/09/13 01:02:53;;;;;;;4.60;1.40;;;16.30;87.80;;;;;;5008359;28;20032;-66
2022/09/13 01:05:23;;;;;;;2.90;1.33;;;16.10;88.60;;;;;;5004199;28;20057;-67
2022/09/13 01:07:49;;;;;;;3.88;1.90;;;15.90;89.30;;;;;;5019160;28;20037;-68
2022/09/13 01:10:16;;;;;;;4.32;1.40;;;15.70;90.20;;;;;;5012686;28;20042;-67
2022/09/13 01:12:58;;;;;;;7.20;1.80;;;15.50;91.20;;;;;;5002022;28;20034;-66
2022/09/13 01:15:24;;;;;;;4.80;1.55;;;15.20;92.20;;;;;;5015730;28;20056;-68
2022/09/13 01:17:53;;;;;;;4.32;1.60;;;15.00;93.00;;;;;;5009969;28;20062;-67
2022/09/13 01:20:22;;;;;;;5.15;1.38;;;14.90;93.20;;;;;;5006774;28;20026;-68
2022/09/13 01:23:07;;;;;;;4.53;1.50;;;14.80;93.50;;;;;;5002844;28;20113;-68
2022/09/13 01:26:07;;;;;;;4.95;1.73;;;14.80;93.80;;;;;;4997965;28;20217;-67
2022/09/13 01:28:53;;;;;;;4.50;1.73;;;14.70;94.10;;;;;;5006231;28;20034;-68
2022/09/13 01:31:58;;;;;;;5.28;1.80;;;14.60;94.40;;;;;;5001507;28;20034;-67
2022/09/13 01:34:42;;;;;;;3.90;1.70;;;14.60;94.50;;;;;;4935968;29;20322;-67
2022/09/13 01:37:22;;;;;;;3.92;1.60;;;14.70;94.30;;;;;;4938784;29;20032;-68
2022/09/13 01:40:16;;;;;;;5.28;1.80;;;14.60;94.80;;;;;;4977018;28;20042;-67
2022/09/13 01:43:02;;;;;;;4.20;1.60;;;14.60;95.10;;;;;;5011331;28;20053;-67
2022/09/13 01:45:49;;;;;;;4.55;1.65;;;14.40;95.70;;;;;;5012719;28;20030;-67
2022/09/13 01:48:40;;;;;;;6.35;2.17;;;14.20;96.10;;;;;;5018286;28;20045;-68
2022/09/13 01:51:15;;;;;;;5.82;1.80;;;14.00;96.50;;;;;;5007445;28;20116;-68
2022/09/13 01:54:02;;;;;;;5.40;1.88;;;13.90;96.90;;;;;;5010127;28;21895;-67
2022/09/13 01:56:48;;;;;;;4.10;1.90;;;13.90;96.80;;;;;;5007492;28;20034;-66
2022/09/13 01:59:23;;;;;;;3.83;1.77;;;13.80;97.10;;;;;;5000146;28;20042;-67
2022/09/13 02:02:04;;;;;;;7.18;2.08;;;13.70;97.30;;;;;;5001248;28;20034;-67
2022/09/13 02:05:01;;;;;;;4.53;1.77;;;13.60;97.50;;;;;;5015151;28;20054;-67
2022/09/13 02:07:54;;;;;;;3.63;2.10;;;13.70;97.50;;;;;;5024048;28;20045;-67
2022/09/13 02:10:32;;;;;;;4.10;2.10;;;13.60;97.50;;;;;;5004193;28;20316;-68
2022/09/13 02:12:59;;;;;;;4.13;2.38;;;13.60;97.50;;;;;;5010111;28;20076;-68
2022/09/13 02:15:47;;;;;;;4.18;1.92;;;13.60;97.60;;;;;;5009161;28;20014;-67
2022/09/13 02:18:24;;;;;;;4.72;1.85;;;13.60;97.60;;;;;;5010283;28;20343;-67
2022/09/13 02:20:52;;;;;;;5.40;1.90;;;13.50;97.70;;;;;;5003200;28;20064;-67
2022/09/13 02:23:27;;;;;;;3.60;1.83;;;13.60;97.70;;;;;;5000245;28;20038;-67
2022/09/13 02:25:55;;;;;;;3.70;1.88;;;13.50;97.70;;;;;;5007639;28;20030;-67
2022/09/13 02:28:27;;;;;;;5.32;2.20;;;13.40;97.80;;;;;;5004067;28;20038;-69
2022/09/13 02:30:55;;;;;;;5.30;2.00;;;13.40;97.80;;;;;;5012128;28;20096;-68
2022/09/13 02:33:27;;;;;;;4.50;2.00;;;13.40;97.90;;;;;;4998049;28;20449;-68
2022/09/13 02:36:03;;;;;;;4.40;2.10;;;13.30;97.80;;;;;;5023233;28;20036;-67
2022/09/13 02:38:58;;;;;;;4.55;2.05;;;13.10;97.60;;;;;;5006296;28;20032;-67
2022/09/13 02:41:31;;;;;;;4.47;2.00;;;13.10;97.70;;;;;;4999545;28;20042;-67
2022/09/13 02:44:13;;;;;;;5.88;2.08;;;13.00;97.50;;;;;;5010124;28;20552;-67
2022/09/13 02:47:03;;;;;;;5.50;2.22;;;13.00;97.70;;;;;;5016128;28;20133;-67
2022/09/13 02:49:39;;;;;;;5.75;2.08;;;12.90;97.50;;;;;;5025530;28;20025;-68
2022/09/13 02:52:26;;;;;;;5.25;2.22;;;12.90;97.40;;;;;;4991227;28;20026;-68
2022/09/13 02:55:08;;;;;;;5.80;2.45;;;12.80;97.30;;;;;;4996587;28;20097;-68
2022/09/13 02:57:52;;;;;;;4.03;2.17;;;12.80;97.40;;;;;;5009833;28;20030;-68
2022/09/13 03:00:18;;;;;;;5.43;2.25;;;12.60;97.10;;;;;;4995504;28;20056;-68
2022/09/13 03:02:45;;;;;;;7.93;2.28;;;12.50;96.80;;;;;;5003560;28;20026;-66
2022/09/13 03:05:11;;;;;;;4.32;1.88;;;12.40;96.50;;;;;;5007969;28;20026;-67
2022/09/13 03:07:37;;;;;;;5.43;2.30;;;12.40;96.10;;;;;;5004454;28;21111;-67
2022/09/13 03:10:08;;;;;;;5.05;2.17;;;12.50;96.50;;;;;;4997131;28;20041;-68
2022/09/13 03:13:13;;;;;;;5.63;2.30;;;12.50;96.60;;;;;;4999606;28;20026;-67
2022/09/13 03:16:07;;;;;;;5.60;2.17;;;12.50;96.40;;;;;;5008752;28;20041;-68
2022/09/13 03:18:42;;;;;;;;;;;12.50;96.40;;;;;;5010167;28;20029;-67
2022/09/13 03:21:18;;;;;;;4.35;2.22;;;12.60;96.70;;;;;;5001977;28;19917;-68
2022/09/13 03:24:24;;;;;;;4.50;2.30;;;12.70;97.00;;;;;;5002438;28;20172;-67
2022/09/13 03:27:27;;;;;;;7.18;2.10;;;12.70;96.70;;;;;;4998324;28;20037;-68
2022/09/13 03:30:09;;;;;;;4.22;1.98;;;12.70;97.00;;;;;;5029226;28;20438;-67
2022/09/13 03:32:44;;;;;;;5.50;2.20;;;12.70;97.30;;;;;;4997007;28;20113;-67
2022/09/13 03:35:32;;;;;;;5.47;2.10;;;12.70;97.20;;;;;;5029780;28;20037;-68
2022/09/13 03:37:58;;;;;;;5.72;2.50;;;12.70;97.10;;;;;;5004256;28;20025;-68
2022/09/13 03:40:44;;;;;;;6.45;2.17;;;12.80;97.20;;;;;;5004187;28;20041;-68
2022/09/13 03:43:18;;;;;;;4.50;1.90;;;12.90;97.40;;;;;;5010913;28;20045;-66
2022/09/13 03:45:51;;;;;;;4.40;2.17;;;13.00;97.90;;;;;;5011354;28;20026;-69
2022/09/13 03:48:17;;;;;;;4.15;1.70;;;13.10;97.70;;;;;;5001677;28;20054;-68
2022/09/13 03:50:46;;;;;;;4.72;2.03;;;13.10;97.80;;;;;;5011256;28;20430;-67
2022/09/13 03:53:14;;;;;;;5.43;2.30;;;13.10;98.00;;;;;;5021482;28;20385;-67
2022/09/13 03:55:42;;;;;;;4.20;1.92;;;13.20;98.00;;;;;;5010367;28;20084;-67
2022/09/13 03:58:11;;;;;;;6.53;2.20;;;13.30;98.00;;;;;;4998389;28;20038;-67
2022/09/13 04:00:39;;;;;;;6.32;1.95;;;13.20;98.00;;;;;;5007638;28;20549;-67
2022/09/13 04:03:04;;;;;;;5.00;2.13;;;13.30;98.00;;;;;;5004529;28;20318;-67
2022/09/13 04:05:30;;;;;;;4.53;1.92;;;13.20;98.00;;;;;;4999201;28;20037;-68
2022/09/13 04:07:56;;;;;;;6.93;1.90;;;13.20;98.00;;;;;;5020354;28;20087;-68
2022/09/13 04:10:23;;;;;;;4.20;2.08;;;13.10;97.60;;;;;;5004831;28;20030;-67
2022/09/13 04:12:49;;;;;;;3.35;1.88;;;13.30;98.00;;;;;;5010901;28;20105;-67
2022/09/13 04:15:15;;;;;;;3.83;2.00;;;13.50;98.00;;;;;;4998917;28;20120;-66
2022/09/13 04:17:41;;;;;;;4.78;2.60;;;13.40;98.00;;;;;;5010516;28;20124;-68
2022/09/13 04:20:07;;;;;;;4.88;2.30;;;13.10;97.70;;;;;;5003115;28;20104;-67
2022/09/13 04:22:36;;;;;;;5.45;2.50;;;13.00;98.00;;;;;;5013092;28;20095;-68
2022/09/13 04:25:02;;;;;;;6.28;2.30;;;12.90;97.80;;;;;;5019244;28;20030;-67
2022/09/13 04:27:27;;;;;;;4.72;1.88;;;12.70;97.80;;;;;;5021339;28;20034;-68
2022/09/13 04:29:53;;;;;;;3.20;1.90;;;12.60;97.40;;;;;;5011565;28;20133;-67
2022/09/13 04:32:22;;;;;;;5.65;1.85;;;12.60;97.00;;;;;;5013587;28;20057;-68
2022/09/13 04:34:47;;;;;;;5.00;2.00;;;12.60;97.30;;;;;;5008216;28;20026;-68
2022/09/13 04:37:13;;;;;;;5.72;2.25;;;12.60;97.50;;;;;;5013396;28;20319;-67
2022/09/13 04:39:39;;;;;;;4.68;2.22;;;12.60;97.10;;;;;;5013670;28;20418;-68
2022/09/13 04:42:06;;;;;;;5.43;2.47;;;12.70;97.50;;;;;;5012627;28;20033;-68
2022/09/13 04:44:32;;;;;;;5.05;1.85;;;12.70;97.70;;;;;;5009257;28;20030;-67
2022/09/13 04:46:59;;;;;;;4.38;1.60;;;12.80;98.00;;;;;;5012615;28;20046;-67
2022/09/13 04:49:24;;;;;;;4.43;1.95;;;12.90;98.00;;;;;;5017571;28;20034;-68
2022/09/13 04:51:50;;;;;;;3.90;1.90;;;13.00;98.00;;;;;;5024055;28;20025;-68
2022/09/13 04:54:16;;;;;;;8.05;1.90;;;13.20;98.00;;;;;;5007340;28;20053;-67
2022/09/13 04:56:46;;;;;;;7.13;1.95;;;13.20;98.00;;;;;;5006894;28;20021;-68
2022/09/13 04:59:12;;;;;;;4.55;1.90;;;13.20;98.00;;;;;;5013101;28;20438;-68
2022/09/13 05:01:38;;;;;;;5.25;1.60;;;13.30;98.00;;;;;;5022995;28;20374;-67
2022/09/13 05:04:06;;;;;;;5.20;1.83;;;13.50;98.00;;;;;;5006187;28;20334;-68
2022/09/13 05:06:31;;;;;;;5.53;1.60;;;13.40;98.00;;;;;;5013529;28;20414;-68
2022/09/13 05:08:57;;;;;;;2.78;1.50;;;13.30;98.00;;;;;;5009832;28;20042;-68
2022/09/13 05:11:25;;;;;;;6.88;1.70;;;13.40;98.00;;;;;;5008926;28;20018;-66
2022/09/13 05:13:54;;;;;;;4.95;1.60;;;13.30;98.00;;;;;;5011294;28;20104;-67
2022/09/13 05:16:20;;;;;;;8.73;1.67;;;13.30;98.00;;;;;;5019558;28;20045;-66
2022/09/13 05:18:46;;;;;;;5.30;1.95;;;13.30;98.00;;;;;;5003874;28;20026;-68
2022/09/13 05:21:12;;;;;;;4.95;1.60;;;13.30;98.00;;;;;;5019774;28;20032;-68
2022/09/13 05:23:38;;;;;;;3.38;1.60;;;13.20;98.00;;;;;;5010723;28;20084;-68
2022/09/13 05:26:05;;;;;;;3.47;1.42;;;13.40;98.00;;;;;;5016202;28;20033;-68
2022/09/13 05:28:33;;;;;;;4.35;1.80;;;13.70;98.00;;;;;;5017310;28;20021;-68
2022/09/13 05:31:02;;;;;;;3.83;1.70;;;13.70;98.00;;;;;;5015976;28;20121;-68
2022/09/13 05:33:29;;;;;;;5.32;1.70;;;13.80;98.00;;;;;;4989951;28;20026;-67
2022/09/13 05:36:00;;;;;;;8.48;1.90;;;13.80;98.00;;;;;;5008037;28;20022;-67
2022/09/13 05:38:26;;;;;;;3.72;1.60;;;13.80;98.00;;;;;;5026839;28;20048;-68
2022/09/13 05:40:57;;;;;;;7.85;1.70;;;13.80;98.00;;;;;;5021400;28;20055;-67
2022/09/13 05:43:27;;;;;;;5.05;1.90;;;13.80;98.00;;;;;;5016283;28;20029;-69
2022/09/13 05:46:12;;;;;;;5.05;1.70;;;13.80;98.00;;;;;;5017166;28;20447;-70
2022/09/13 05:48:38;;;;;;;5.35;1.70;;;13.80;98.00;;;;;;5022490;28;20141;-69
2022/09/13 05:51:15;;;;;;;3.53;1.40;;;13.70;98.00;;;;;;5033040;28;20033;-69
2022/09/13 05:53:43;;;;;;;5.93;1.50;;;13.80;98.00;;;;;;5008947;28;20323;-69
2022/09/13 05:56:11;;;;;;;4.90;1.60;;;13.80;98.00;;;;;;5010093;28;20103;-68
2022/09/13 05:58:46;;;;;;;3.78;1.50;;;13.90;98.00;;;;;;5014063;28;20319;-69
2022/09/13 06:01:16;;;;;;;2.95;1.48;;;14.00;98.00;;;;;;5020132;28;20041;-69
2022/09/13 06:03:42;;;;;;;4.13;1.42;;;14.20;98.00;;;;;;5018469;28;20029;-69
2022/09/13 06:06:10;;;;;;;4.05;1.90;;;14.50;98.00;;;;;;5014732;28;20106;-69
2022/09/13 06:08:35;;;;;;;3.75;1.80;;;14.60;98.00;;;;;;5023912;28;20029;-68
2022/09/13 06:11:06;;;;;;;3.22;1.67;;;14.80;98.00;;;;;;5017105;28;20033;-68
2022/09/13 06:13:32;;;;;;;4.07;1.50;;;14.90;98.00;;;;;;5014198;28;20022;-67
2022/09/13 06:16:00;;;;;;;4.43;1.55;;;14.80;98.00;;;;;;5013438;28;20042;-67
2022/09/13 06:18:27;;;;;;;6.82;2.10;;;14.80;98.00;;;;;;5017291;28;20084;-68
2022/09/13 06:21:06;;;;;;;6.93;1.80;;;14.80;98.00;;;;;;5013235;28;20037;-67
2022/09/13 06:23:31;;;;;;;2.67;1.50;;;14.80;98.00;;;;;;5013664;28;20038;-66
2022/09/13 06:26:05;;;;;;;4.43;1.83;;;14.90;98.00;;;;;;5013268;28;20044;-66
2022/09/13 06:28:32;;;;;;;3.95;1.80;;;15.10;98.00;;;;;;5009872;28;20026;-66
2022/09/13 06:31:06;;;;;;;3.75;1.75;;;15.30;98.00;;;;;;5014233;28;20406;-67
2022/09/13 06:33:32;;;;;;;;;;;15.40;98.00;;;;;;5014662;28;20049;-69
2022/09/13 06:36:03;;;;;;;5.43;1.55;;;15.50;98.00;;;;;;5016217;28;19913;-67
2022/09/13 06:38:29;;;;;;;6.03;1.50;;;15.70;98.00;;;;;;5017284;28;20037;-67
2022/09/13 06:41:09;;;;;;;5.75;1.30;;;16.00;98.00;;;;;;5014788;28;20026;-68
2022/09/13 06:43:35;;;;;;;4.15;1.48;;;16.20;97.60;;;;;;5016973;28;20453;-67
2022/09/13 06:46:08;;;;;;;5.05;1.65;;;16.30;97.50;;;;;;5020775;28;20108;-67
2022/09/13 06:48:36;;;;;;;3.80;1.30;;;16.30;97.10;;;;;;5026558;28;20042;-68
2022/09/13 06:51:04;;;;;;;2.63;1.33;;;16.40;97.00;;;;;;5015842;28;20068;-68
2022/09/13 06:53:30;;;;;;;4.85;1.35;;;16.60;96.80;;;;;;5015962;28;20109;-68
2022/09/13 06:56:09;;;;;;;2.65;1.25;;;16.80;96.00;;;;;;5016646;28;20379;-68
2022/09/13 06:58:36;;;;;;;2.90;1.40;;;17.10;95.60;;;;;;5025138;28;20034;-68
2022/09/13 07:01:22;;;;;;;5.63;1.20;;;17.30;95.60;;;;;;5019901;28;20022;-68
2022/09/13 07:03:53;;;;;;;6.03;1.33;;;17.50;95.10;;;;;;5013231;28;20324;-68
2022/09/13 07:06:21;;;;;;;4.25;1.35;;;17.70;94.90;;;;;;5012095;28;20034;-68
2022/09/13 07:08:49;;;;;;;4.18;1.20;;;17.90;95.50;;;;;;5027404;28;20025;-68
2022/09/13 07:11:19;;;;;;;3.05;1.30;;;18.00;95.60;;;;;;5018119;28;20109;-68
2022/09/13 07:13:55;;;;;;;3.60;1.40;;;18.10;95.40;;;;;;5012801;28;20026;-69
2022/09/13 07:16:22;;;;;;;2.13;1.02;;;18.30;95.20;;;;;;5016653;28;20025;-68
2022/09/13 07:19:12;;;;;;;2.00;1.10;;;18.40;94.70;;;;;;5016801;28;20037;-68
2022/09/13 07:21:38;;;;;;;5.50;1.45;;;18.50;94.70;;;;;;5024157;28;20045;-68
2022/09/13 07:24:04;;;;;;;3.53;1.30;;;18.70;94.40;;;;;;5012410;28;20102;-68
2022/09/13 07:26:30;;;;;;;4.00;1.27;;;19.00;93.40;;;;;;5015147;28;20439;-68
2022/09/13 07:28:59;;;;;;;4.57;1.40;;;19.20;91.90;;;;;;5016396;28;20038;-68
2022/09/13 07:31:28;;;;;;;2.88;1.27;;;19.50;90.60;;;;;;5015649;28;20033;-68
2022/09/13 07:33:56;;;;;;;2.90;1.15;;;19.80;91.30;;;;;;5016098;28;20030;-69
2022/09/13 07:36:26;;;;;;;3.42;1.13;;;19.90;91.50;;;;;;5015283;28;20068;-68
2022/09/13 07:38:51;;;;;;;3.90;1.40;;;20.00;91.20;;;;;;5016843;28;20034;-68
2022/09/13 07:41:19;;;;;;;3.60;1.40;;;20.20;90.80;;;;;;5034974;28;20025;-69
2022/09/13 07:43:45;;;;;;;4.93;1.20;;;20.40;90.30;;;;;;5036133;28;20029;-68
2022/09/13 07:46:16;;;;;;;2.80;1.05;;;20.50;88.10;;;;;;5035849;28;20021;-68
2022/09/13 07:48:46;;;;;;;4.63;1.38;;;20.70;87.30;;;;;;5035813;28;20136;-69
2022/09/13 07:51:17;;;;;;;2.25;1.08;;;21.00;86.90;;;;;;5019787;28;20442;-68
2022/09/13 07:53:44;;;;;;;2.42;1.00;;;21.10;86.40;;;;;;5016147;28;20021;-68
2022/09/13 07:56:12;;;;;;;2.33;0.90;;;21.20;85.00;;;;;;5015076;28;20358;-68
2022/09/13 07:58:39;;;;;;;1.85;0.90;;;21.40;79.90;;;;;;5016220;28;20021;-68
2022/09/13 08:01:19;;;;;;;2.47;0.95;;;21.60;78.90;;;;;;5016043;28;20038;-68
2022/09/13 08:03:53;;;;;;;2.22;0.95;;;21.80;76.40;;;;;;5016109;28;20053;-68
2022/09/13 08:06:19;;;;;;;3.65;0.90;;;22.10;75.90;;;;;;5015043;28;20109;-68
2022/09/13 08:08:45;;;;;;;2.58;0.98;;;22.60;76.50;;;;;;5016110;28;20025;-69
2022/09/13 08:11:33;;;;;;;2.42;1.00;;;23.60;74.10;;;;;;5014915;28;20029;-69
2022/09/13 08:13:59;;;;;;;3.38;0.80;;;25.50;69.20;;;;;;5015083;28;20036;-69
2022/09/13 08:16:27;;;;;;;1.98;0.90;;;26.70;65.90;;;;;;5015911;28;20018;-69
2022/09/13 08:18:56;;;;;;;2.00;0.70;;;27.70;65.10;;;;;;5016017;28;20105;-68
2022/09/13 08:21:24;;;;;;;3.70;0.90;;;28.90;61.20;;;;;;5015791;28;20026;-68
2022/09/13 08:23:54;;;;;;;4.20;0.73;;;29.90;57.90;;;;;;5015856;28;20034;-68
2022/09/13 08:26:20;;;;;;;1.98;0.70;;;28.80;58.90;;;;;;5014786;28;20030;-67
2022/09/13 08:28:48;;;;;;;2.28;0.77;;;28.40;59.70;;;;;;5014755;28;20033;-67
2022/09/13 08:31:16;;;;;;;1.60;0.63;;;28.00;60.40;;;;;;5015818;28;20385;-67
2022/09/13 08:34:04;;;;;;;1.25;0.60;;;27.70;63.90;;;;;;5015829;28;20026;-67
2022/09/13 08:36:30;;;;;;;2.40;0.68;;;28.70;63.90;;;;;;5015623;28;20028;-67
2022/09/13 08:38:58;;;;;;;4.45;0.65;;;29.70;60.10;;;;;;5015657;28;20097;-69
2022/09/13 08:41:44;;;;;;;3.13;0.60;;;30.00;59.70;;;;;;5014646;28;20037;-69
2022/09/13 08:44:29;;;;;;;1.50;0.50;;;30.80;58.30;;;;;;5013823;28;20386;-69
2022/09/13 08:47:03;;;;;;;2.15;0.60;;;32.20;52.90;;;;;;5015344;28;20041;-68
2022/09/13 08:49:37;;;;;;;1.42;0.50;;;33.30;51.10;;;;;;5017192;28;20427;-69
2022/09/13 08:52:29;;;;;;;1.58;0.50;;;32.90;52.30;;;;;;5019411;28;20048;-69
2022/09/13 08:54:56;;;;;;;2.58;0.52;;;33.10;51.00;;;;;;5018302;28;20014;-68
2022/09/13 08:57:44;;;;;;;2.08;0.60;;;33.20;50.20;;;;;;5019114;28;20022;-68
2022/09/13 09:00:19;;;;;;;2.40;0.50;;;32.40;50.90;;;;;;5017323;28;20026;-68
2022/09/13 09:03:04;;;;;;;1.27;0.60;;;32.00;50.70;;;;;;5018254;28;20022;-68
2022/09/13 09:05:46;;;;;;;2.67;0.70;;;31.40;52.10;;;;;;5016320;28;20033;-69
2022/09/13 09:08:18;;;;;;;1.48;0.60;;;31.00;53.00;;;;;;5019220;28;20399;-68
2022/09/13 09:10:51;;;;;;;3.30;1.15;;;30.90;53.10;;;;;;5022408;28;20021;-68
2022/09/13 09:13:53;;;;;;;1.50;0.73;;;30.80;54.70;;;;;;5016722;28;20017;-68
2022/09/13 09:16:32;;;;;;;3.33;1.02;;;30.60;61.80;;;;;;4956598;29;20027;-68
2022/09/13 09:19:09;;;;;;;4.03;1.00;;;30.30;64.40;;;;;;4981278;28;20343;-68
2022/09/13 09:21:36;;;;;;;3.53;0.95;;;30.40;63.10;;;;;;5007676;28;20033;-68
2022/09/13 09:24:03;;;;;;;2.75;0.70;;;30.90;59.10;;;;;;5018999;28;20351;-68
2022/09/13 09:26:29;;;;;;;2.47;0.80;;;31.00;57.60;;;;;;5019795;28;20026;-68
2022/09/13 09:28:59;;;;;;;2.95;0.77;;;31.00;56.30;;;;;;5025399;28;20085;-68
2022/09/13 09:31:31;;;;;;;2.35;0.70;;;30.30;55.60;;;;;;5016532;28;20029;-68
2022/09/13 09:34:12;;;;;;;2.13;0.77;;;29.40;57.50;;;;;;5018644;28;20145;-68
2022/09/13 09:36:49;;;;;;;4.45;1.00;;;28.80;60.30;;;;;;5015970;28;20057;-68
2022/09/13 09:39:15;;;;;;;2.33;0.80;;;28.70;61.50;;;;;;5021295;28;20021;-68
2022/09/13 09:41:43;;;;;;;2.30;0.80;;;29.40;60.50;;;;;;5022061;28;20030;-68
2022/09/13 09:44:27;;;;;;;2.25;0.63;;;30.00;58.30;;;;;;5018216;28;20022;-68
2022/09/13 09:47:01;;;;;;;2.13;0.77;;;31.60;55.80;;;;;;5016456;28;20116;-68
2022/09/13 09:53:05;;;;;;;2.73;1.00;;;33.20;52.90;;;;;;5028162;28;20095;-67
2022/09/13 09:55:44;;;;;;;3.33;0.80;;;31.80;55.30;;;;;;5021116;28;20112;-68
2022/09/13 09:58:11;;;;;;;3.33;0.85;;;31.10;59.00;;;;;;5014920;28;20030;-67
2022/09/13 10:00:56;;;;;;;1.90;0.70;;;31.30;59.00;;;;;;5017570;28;20026;-68
2022/09/13 10:03:27;;;;;;;1.13;0.68;;;30.60;59.80;;;;;;5013840;28;20033;-68
2022/09/13 10:06:17;;;;;;;4.47;0.90;;;30.40;59.60;;;;;;5017266;28;20026;-68
2022/09/13 10:08:59;;;;;;;2.70;0.80;;;30.60;60.10;;;;;;5028134;28;20026;-67
2022/09/13 10:11:38;;;;;;;2.72;0.95;;;30.90;58.20;;;;;;5024182;28;20029;-68
2022/09/13 10:14:04;;;;;;;4.28;0.63;;;30.80;58.90;;;;;;5025583;28;20041;-67
2022/09/13 10:16:31;;;;;;;1.98;0.70;;;30.70;57.60;;;;;;5037503;28;20017;-68
2022/09/13 10:19:24;;;;;;;4.30;0.80;;;30.60;56.50;;;;;;5027986;28;20021;-68
2022/09/13 10:22:16;;;;;;;2.63;0.75;;;30.90;55.30;;;;;;5029845;28;20052;-68
2022/09/13 10:24:43;;;;;;;2.80;0.60;;;30.50;56.60;;;;;;5012134;28;20042;-67
2022/09/13 10:27:30;;;;;;;2.75;0.85;;;30.90;55.60;;;;;;5035004;28;20026;-67
2022/09/13 10:29:58;;;;;;;2.65;0.80;;;30.90;55.90;;;;;;4998008;28;20036;-68
2022/09/13 10:32:26;;;;;;;1.88;0.70;;;31.50;55.80;;;;;;4998589;28;20022;-68
2022/09/13 10:34:54;;;;;;;2.38;1.00;;;31.80;55.20;;;;;;5027092;28;20090;-68
2022/09/13 10:37:32;;;;;;;3.67;0.88;;;31.30;54.60;;;;;;5015751;28;20018;-68
2022/09/13 10:40:08;;;;;;;1.92;0.65;;;31.50;54.70;;;;;;5017684;28;20038;-68
2022/09/13 10:42:34;;;;;;;1.77;0.70;;;32.00;55.20;;;;;;5016142;28;20026;-68
2022/09/13 10:45:05;;;;;;;2.33;0.80;;;33.10;54.80;;;;;;5017485;28;20330;-68
2022/09/13 10:47:46;;;;;;;3.53;0.70;;;34.20;51.10;;;;;;5019133;28;20401;-68
2022/09/13 10:50:21;;;;;;;3.70;0.80;;;34.10;51.20;;;;;;5036742;28;20025;-68
2022/09/13 10:52:51;;;;;;;2.35;0.82;;;33.50;52.80;;;;;;5014187;28;20034;-68
2022/09/13 10:55:17;;;;;;;2.25;0.70;;;33.30;51.40;;;;;;5013990;28;20079;-68
2022/09/13 10:57:50;;;;;;;3.15;0.77;;;32.60;52.40;;;;;;5018453;28;20100;-67
2022/09/13 11:00:19;;;;;;;;;;;32.20;52.30;;;;;;5036314;28;20026;-67
2022/09/13 11:03:22;;;;;;;2.60;0.63;;;32.20;52.20;;;;;;5012269;28;19910;-67
2022/09/13 11:06:15;;;;;;;4.25;1.38;;;32.00;52.70;;;;;;5036210;28;20064;-68
2022/09/13 11:08:52;;;;;;;2.00;0.80;;;31.70;53.20;;;;;;5034669;28;20057;-67
2022/09/13 11:11:56;;;;;;;3.90;0.80;;;31.80;55.10;;;;;;5017014;28;20034;-67
2022/09/13 11:14:31;;;;;;;;;;;32.80;53.70;;;;;;5014901;28;20135;-68
2022/09/13 11:17:15;;;;;;;1.88;0.70;;;33.20;51.70;;;;;;5016629;28;19913;-67
2022/09/13 11:20:23;;;;;;;3.25;0.93;;;32.10;52.20;;;;;;5016714;28;20021;-67
2022/09/13 11:23:10;;;;;;;2.13;0.80;;;31.50;54.40;;;;;;5014501;28;20032;-67
2022/09/13 11:26:00;;;;;;;4.72;0.80;;;32.30;52.50;;;;;;5015304;28;20121;-67
2022/09/13 11:28:57;;;;;;;1.63;0.70;;;32.80;51.20;;;;;;5017105;28;20056;-66
2022/09/13 11:31:54;;;;;;;3.67;0.90;;;32.50;52.50;;;;;;5016367;28;20030;-67
2022/09/13 11:34:31;;;;;;;1.88;0.75;;;31.60;54.50;;;;;;5016256;28;20032;-68
2022/09/13 11:37:02;;;;;;;1.65;0.73;;;30.70;54.90;;;;;;5015865;28;20026;-67
2022/09/13 11:39:30;;;;;;;1.83;0.70;;;30.20;56.90;;;;;;5035480;28;20025;-68
2022/09/13 11:42:32;;;;;;;2.80;0.75;;;29.50;56.60;;;;;;5032226;28;20048;-67
2022/09/13 11:45:19;;;;;;;4.50;1.00;;;29.50;58.20;;;;;;5015335;28;20029;-68
2022/09/13 11:47:54;;;;;;;1.98;0.70;;;29.60;58.20;;;;;;5004473;28;20117;-68
2022/09/13 11:50:36;;;;;;;5.03;0.82;;;29.40;58.10;;;;;;5010905;28;20034;-68
2022/09/13 11:53:41;;;;;;;2.72;0.75;;;29.40;58.00;;;;;;5004805;28;20334;-68
2022/09/13 11:56:27;;;;;;;;;;;30.40;58.70;;;;;;5025803;28;20025;-68
2022/09/13 11:58:59;;;;;;;2.97;0.80;;;30.60;56.50;;;;;;5012346;28;20010;-68
2022/09/13 12:01:42;;;;;;;2.60;0.80;;;30.70;56.00;;;;;;5015607;28;20037;-67
2022/09/13 12:04:22;;;;;;;3.88;0.70;;;30.70;57.30;;;;;;5013463;28;20044;-68
2022/09/13 12:06:56;;;;;;;1.17;0.70;;;31.30;55.50;;;;;;5000495;28;20061;-68
2022/09/13 12:09:29;;;;;;;3.42;0.80;;;31.30;55.30;;;;;;4980512;28;20030;-68
2022/09/13 12:12:02;;;;;;;;;;;31.20;56.30;;;;;;5007668;28;20045;-68
2022/09/13 12:14:35;;;;;;;2.80;0.82;;;30.50;55.90;;;;;;5015458;28;19909;-67
2022/09/13 12:17:24;;;;;;;1.75;0.70;;;30.00;58.20;;;;;;5026487;28;20422;-67
2022/09/13 12:19:54;;;;;;;2.13;0.68;;;29.70;58.40;;;;;;5008501;28;20037;-68
2022/09/13 12:22:26;;;;;;;1.88;0.70;;;30.20;58.70;;;;;;5025793;28;20040;-68
2022/09/13 12:25:02;;;;;;;1.15;0.63;;;30.30;57.50;;;;;;5036820;28;20419;-67
2022/09/13 12:27:47;;;;;;;2.10;0.80;;;30.50;57.00;;;;;;5025249;28;20338;-68
2022/09/13 12:30:19;;;;;;;1.45;0.70;;;30.40;57.10;;;;;;5018597;28;20488;-67
2022/09/13 12:32:46;;;;;;;2.70;0.88;;;30.40;57.70;;;;;;5029780;28;20033;-67
2022/09/13 12:35:37;;;;;;;1.48;0.60;;;30.30;57.70;;;;;;5039456;28;20021;-68
2022/09/13 12:38:17;;;;;;;1.83;0.68;;;30.70;58.70;;;;;;5031679;28;20059;-67
2022/09/13 12:41:00;;;;;;;1.63;0.60;;;30.80;56.00;;;;;;5038254;28;20027;-67
2022/09/13 12:44:04;;;;;;;2.25;0.88;;;30.00;58.20;;;;;;5031209;28;20026;-67
2022/09/13 12:46:51;;;;;;;0.85;0.60;;;29.50;59.50;;;;;;5001683;28;20468;-68
2022/09/13 12:50:04;;;;;;;3.28;0.98;;;29.70;57.90;;;;;;5000054;28;20370;-68
2022/09/13 12:53:11;;;;;;;1.58;0.70;;;30.10;58.50;;;;;;4994931;28;20041;-68
2022/09/13 12:56:05;;;;;;;4.18;0.80;;;30.40;57.90;;;;;;5037424;28;20111;-68
2022/09/13 12:58:34;;;;;;;;;;;30.60;57.30;;;;;;5017889;28;20418;-67
2022/09/13 13:01:18;;;;;;;3.42;0.93;;;30.50;57.10;;;;;;5019231;28;20352;-68
2022/09/13 13:03:48;;;;;;;1.63;0.80;;;30.10;58.20;;;;;;4999554;28;20316;-67
2022/09/13 13:06:20;;;;;;;9.10;1.13;;;30.10;61.60;;;;;;5012022;28;20030;-67
2022/09/13 13:08:59;;;;;;;4.10;1.00;;;30.10;60.70;;;;;;5018991;28;20061;-67
2022/09/13 13:11:28;;;;;;;4.10;1.38;;;30.50;60.70;;;;;;5017716;28;20026;-67
2022/09/13 13:14:08;;;;;;;4.80;1.15;;;30.60;59.90;;;;;;5018812;28;20025;-67
2022/09/13 13:16:44;;;;;;;4.05;1.00;;;31.00;60.50;;;;;;5018915;28;20026;-67
2022/09/13 13:19:32;;;;;;;2.33;0.90;;;31.00;59.90;;;;;;5018013;28;20034;-67
2022/09/13 13:22:35;;;;;;;2.63;1.00;;;31.30;58.70;;;;;;5018982;28;20022;-67
2022/09/13 13:25:29;;;;;;;5.03;1.00;;;31.80;56.30;;;;;;5017680;28;20033;-67
2022/09/13 13:27:55;;;;;;;4.95;1.20;;;32.10;57.10;;;;;;5016998;28;20338;-67
2022/09/13 13:30:39;;;;;;;3.65;1.20;;;32.30;57.60;;;;;;5018602;28;20028;-67